createdAt,value
2018-10-01T00:00:15.926Z,938.81
2018-10-01T00:01:24.085Z,938.81
2018-10-01T00:02:32.107Z,938.84
2018-10-01T00:03:40.126Z,938.82
2018-10-01T00:04:48.186Z,938.84
2018-10-01T00:05:56.248Z,938.82
2018-10-01T00:07:04.337Z,938.76
2018-10-01T00:08:12.467Z,938.79
2018-10-01T00:09:20.457Z,938.81
2018-10-01T00:10:28.534Z,938.79
2018-10-01T00:11:36.578Z,938.75
2018-10-01T00:12:44.661Z,938.76
2018-10-01T00:13:52.808Z,938.74
2018-10-01T00:15:00.781Z,938.72
2018-10-01T00:16:08.853Z,938.73
2018-10-01T00:17:17.008Z,938.67
2018-10-01T00:18:24.971Z,938.63
2018-10-01T00:19:33.152Z,938.62
2018-10-01T00:20:41.114Z,938.62
2018-10-01T00:21:49.152Z,938.63
2018-10-01T00:22:57.255Z,938.57
2018-10-01T00:24:05.302Z,938.57
2018-10-01T00:25:13.443Z,938.55
2018-10-01T00:26:21.417Z,938.52
2018-10-01T00:27:29.503Z,938.54
2018-10-01T00:28:37.562Z,938.49
2018-10-01T00:29:45.622Z,938.52
2018-10-01T00:30:53.789Z,938.49
2018-10-01T00:32:01.762Z,938.50
2018-10-01T00:33:09.914Z,938.51
2018-10-01T00:34:17.886Z,938.46
2018-10-01T00:35:25.959Z,938.51
2018-10-01T00:36:34.113Z,938.50
2018-10-01T00:37:42.082Z,938.50
2018-10-01T00:38:50.146Z,938.50
2018-10-01T00:39:58.224Z,938.47
2018-10-01T00:41:06.319Z,938.49
2018-10-01T00:42:14.431Z,938.50
2018-10-01T00:43:22.396Z,938.47
2018-10-01T00:44:30.480Z,938.44
2018-10-01T00:45:38.547Z,938.43
2018-10-01T00:46:46.602Z,938.45
2018-10-01T00:47:54.762Z,938.39
2018-10-01T00:49:02.722Z,938.44
2018-10-01T00:50:10.792Z,938.41
2018-10-01T00:51:18.992Z,938.41
2018-10-01T00:52:27.016Z,938.40
2018-10-01T00:53:34.973Z,938.42
2018-10-01T00:54:43.043Z,938.42
2018-10-01T00:55:51.123Z,938.39
2018-10-01T00:56:59.172Z,938.38
2018-10-01T00:58:07.353Z,938.43
2018-10-01T00:59:15.307Z,938.40
2018-10-01T01:00:23.350Z,938.40
2018-10-01T01:01:31.445Z,938.37
2018-10-01T01:02:39.605Z,938.40
2018-10-01T01:03:47.563Z,938.38
2018-10-01T01:04:55.648Z,938.38
2018-10-01T01:06:03.708Z,938.35
2018-10-01T01:07:11.769Z,938.32
2018-10-01T01:08:19.929Z,938.30
2018-10-01T01:09:27.897Z,938.30
2018-10-01T01:10:35.949Z,938.26
2018-10-01T01:11:44.020Z,938.26
2018-10-01T01:12:52.084Z,938.24
2018-10-01T01:14:00.237Z,938.29
2018-10-01T01:15:08.207Z,938.27
2018-10-01T01:16:16.281Z,938.29
2018-10-01T01:17:24.348Z,938.27
2018-10-01T01:18:32.506Z,938.29
2018-10-01T01:19:40.636Z,938.22
2018-10-01T01:20:48.549Z,938.27
2018-10-01T01:21:56.606Z,938.24
2018-10-01T01:23:04.676Z,938.24
2018-10-01T01:24:12.727Z,938.25
2018-10-01T01:25:20.899Z,938.23
2018-10-01T01:26:28.876Z,938.24
2018-10-01T01:27:36.926Z,938.23
2018-10-01T01:28:44.993Z,938.22
2018-10-01T01:29:53.051Z,938.21
2018-10-01T01:31:01.219Z,938.23
2018-10-01T01:32:09.188Z,938.16
2018-10-01T01:33:17.249Z,938.18
2018-10-01T01:34:25.365Z,938.15
2018-10-01T01:35:33.370Z,938.11
2018-10-01T01:36:41.539Z,938.10
2018-10-01T01:37:49.524Z,938.06
2018-10-01T01:38:57.578Z,938.05
2018-10-01T01:40:05.646Z,938.00
2018-10-01T01:41:13.710Z,938.01
2018-10-01T01:42:21.877Z,937.96
2018-10-01T01:43:29.842Z,937.92
2018-10-01T01:44:37.900Z,937.93
2018-10-01T01:45:45.960Z,937.92
2018-10-01T01:46:54.032Z,937.89
2018-10-01T01:48:02.201Z,937.86
2018-10-01T01:49:10.157Z,937.86
2018-10-01T01:50:18.576Z,937.86
2018-10-01T01:51:26.297Z,937.87
2018-10-01T01:52:34.435Z,937.85
2018-10-01T01:53:42.418Z,937.81
2018-10-01T01:54:50.611Z,937.77
2018-10-01T01:55:58.547Z,937.75
2018-10-01T01:57:06.618Z,937.71
2018-10-01T01:58:14.728Z,937.69
2018-10-01T01:59:22.722Z,937.66
2018-10-01T02:00:30.821Z,937.62
2018-10-01T02:01:38.882Z,937.62
2018-10-01T02:02:47.041Z,937.63
2018-10-01T02:03:55.019Z,937.65
2018-10-01T02:05:03.042Z,937.61
2018-10-01T02:06:11.239Z,937.67
2018-10-01T02:07:19.211Z,937.65
2018-10-01T02:08:27.360Z,937.64
2018-10-01T02:09:35.331Z,937.64
2018-10-01T02:10:43.380Z,937.65
2018-10-01T02:11:51.467Z,937.66
2018-10-01T02:12:59.534Z,937.65
2018-10-01T02:14:07.679Z,937.68
2018-10-01T02:15:15.675Z,937.70
2018-10-01T02:16:23.737Z,937.69
2018-10-01T02:17:31.774Z,937.70
2018-10-01T02:18:39.850Z,937.76
2018-10-01T02:19:48.024Z,937.75
2018-10-01T02:20:55.982Z,937.74
2018-10-01T02:22:04.139Z,937.76
2018-10-01T02:23:12.121Z,937.78
2018-10-01T02:24:20.176Z,937.74
2018-10-01T02:25:28.339Z,937.78
2018-10-01T02:26:36.314Z,937.74
2018-10-01T02:27:44.359Z,937.76
2018-10-01T02:28:52.425Z,937.72
2018-10-01T02:30:00.505Z,937.74
2018-10-01T02:31:08.675Z,937.77
2018-10-01T02:32:16.632Z,937.80
2018-10-01T02:33:24.690Z,937.76
2018-10-01T02:34:32.734Z,937.78
2018-10-01T02:35:40.827Z,937.78
2018-10-01T02:36:48.997Z,937.73
2018-10-01T02:37:57.055Z,937.73
2018-10-01T02:39:05.028Z,937.70
2018-10-01T02:40:13.083Z,937.65
2018-10-01T02:41:21.146Z,937.56
2018-10-01T02:42:29.271Z,937.57
2018-10-01T02:43:37.293Z,937.61
2018-10-01T02:44:45.332Z,937.59
2018-10-01T02:45:53.377Z,937.63
2018-10-01T02:47:01.478Z,937.65
2018-10-01T02:48:09.601Z,937.61
2018-10-01T02:49:17.596Z,937.57
2018-10-01T02:50:25.657Z,937.60
2018-10-01T02:51:33.731Z,937.57
2018-10-01T02:52:41.886Z,937.52
2018-10-01T02:53:49.996Z,937.58
2018-10-01T02:54:57.924Z,937.58
2018-10-01T02:56:05.981Z,937.61
2018-10-01T02:57:14.058Z,937.60
2018-10-01T02:58:22.200Z,937.52
2018-10-01T02:59:30.186Z,937.55
2018-10-01T03:00:38.235Z,937.56
2018-10-01T03:01:46.301Z,937.57
2018-10-01T03:02:54.367Z,937.52
2018-10-01T03:04:02.520Z,937.46
2018-10-01T03:05:10.508Z,937.48
2018-10-01T03:06:18.570Z,937.47
2018-10-01T03:07:26.617Z,937.50
2018-10-01T03:08:34.714Z,937.47
2018-10-01T03:09:42.825Z,937.48
2018-10-01T03:10:50.833Z,937.42
2018-10-01T03:11:58.891Z,937.39
2018-10-01T03:13:06.952Z,937.36
2018-10-01T03:14:15.027Z,937.39
2018-10-01T03:15:23.112Z,937.33
2018-10-01T03:16:31.141Z,937.32
2018-10-01T03:17:39.208Z,937.33
2018-10-01T03:18:47.273Z,937.29
2018-10-01T03:19:55.329Z,937.28
2018-10-01T03:21:03.509Z,937.28
2018-10-01T03:22:11.465Z,937.21
2018-10-01T03:23:19.637Z,937.20
2018-10-01T03:24:27.581Z,937.21
2018-10-01T03:25:35.659Z,937.20
2018-10-01T03:26:43.817Z,937.20
2018-10-01T03:27:51.769Z,937.26
2018-10-01T03:28:59.850Z,937.29
2018-10-01T03:30:07.913Z,937.31
2018-10-01T03:31:16.024Z,937.34
2018-10-01T03:32:24.139Z,937.33
2018-10-01T03:33:32.103Z,937.32
2018-10-01T03:34:40.165Z,937.35
2018-10-01T03:35:48.241Z,937.39
2018-10-01T03:36:56.289Z,937.40
2018-10-01T03:38:04.461Z,937.40
2018-10-01T03:39:12.520Z,937.37
2018-10-01T03:40:20.498Z,937.41
2018-10-01T03:41:28.551Z,937.37
2018-10-01T03:42:36.671Z,937.36
2018-10-01T03:43:44.682Z,937.34
2018-10-01T03:44:52.734Z,937.32
2018-10-01T03:46:00.813Z,937.30
2018-10-01T03:47:08.875Z,937.31
2018-10-01T03:48:17.034Z,937.28
2018-10-01T03:49:24.995Z,937.30
2018-10-01T03:50:33.049Z,937.29
2018-10-01T03:51:41.141Z,937.23
2018-10-01T03:52:49.326Z,937.28
2018-10-01T03:53:57.354Z,937.29
2018-10-01T03:55:05.419Z,937.31
2018-10-01T03:56:13.366Z,937.34
2018-10-01T03:57:21.440Z,937.33
2018-10-01T03:58:29.523Z,937.28
2018-10-01T03:59:37.670Z,937.28
2018-10-01T04:00:45.649Z,937.34
2018-10-01T04:01:53.717Z,937.31
2018-10-01T04:03:01.871Z,937.31
2018-10-01T04:04:09.834Z,937.37
2018-10-01T04:05:17.991Z,937.35
2018-10-01T04:06:25.940Z,937.32
2018-10-01T04:07:34.017Z,937.35
2018-10-01T04:08:42.088Z,937.36
2018-10-01T04:09:50.147Z,937.38
2018-10-01T04:10:58.647Z,937.40
2018-10-01T04:12:06.268Z,937.41
2018-10-01T04:13:14.331Z,937.42
2018-10-01T04:14:22.392Z,937.45
2018-10-01T04:15:30.470Z,937.47
2018-10-01T04:16:38.621Z,937.45
2018-10-01T04:17:46.585Z,937.44
2018-10-01T04:18:54.868Z,937.47
2018-10-01T04:20:02.706Z,937.51
2018-10-01T04:21:10.774Z,937.52
2018-10-01T04:22:19.290Z,937.53
2018-10-01T04:23:26.899Z,937.50
2018-10-01T04:24:34.958Z,937.52
2018-10-01T04:25:43.324Z,937.54
2018-10-01T04:26:51.668Z,937.45
2018-10-01T04:27:59.835Z,937.48
2018-10-01T04:29:07.217Z,937.47
2018-10-01T04:30:15.296Z,937.42
2018-10-01T04:31:23.381Z,937.44
2018-10-01T04:32:31.516Z,937.45
2018-10-01T04:33:39.468Z,937.45
2018-10-01T04:34:47.551Z,937.44
2018-10-01T04:35:55.604Z,937.47
2018-10-01T04:37:03.683Z,937.46
2018-10-01T04:38:11.979Z,937.47
2018-10-01T04:39:19.809Z,937.46
2018-10-01T04:40:27.903Z,937.47
2018-10-01T04:41:35.932Z,937.49
2018-10-01T04:42:44.103Z,937.52
2018-10-01T04:43:52.051Z,937.54
2018-10-01T04:45:00.113Z,937.49
2018-10-01T04:46:08.179Z,937.53
2018-10-01T04:47:16.266Z,937.51
2018-10-01T04:48:24.390Z,937.51
2018-10-01T04:49:32.351Z,937.52
2018-10-01T04:50:41.122Z,937.53
2018-10-01T04:51:48.491Z,937.54
2018-10-01T04:52:56.563Z,937.55
2018-10-01T04:54:04.723Z,937.52
2018-10-01T04:55:12.669Z,937.53
2018-10-01T04:56:20.744Z,937.60
2018-10-01T04:57:28.902Z,937.53
2018-10-01T04:58:37.088Z,937.58
2018-10-01T04:59:45.032Z,937.57
2018-10-01T05:00:52.979Z,937.53
2018-10-01T05:02:01.066Z,937.53
2018-10-01T05:03:09.130Z,937.53
2018-10-01T05:04:17.193Z,937.54
2018-10-01T05:05:25.352Z,937.57
2018-10-01T05:06:33.324Z,937.59
2018-10-01T05:07:41.394Z,937.58
2018-10-01T05:08:49.440Z,937.54
2018-10-01T05:09:57.514Z,937.58
2018-10-01T05:11:05.664Z,937.62
2018-10-01T05:12:13.641Z,937.64
2018-10-01T05:13:21.799Z,937.64
2018-10-01T05:14:29.761Z,937.66
2018-10-01T05:15:37.840Z,937.66
2018-10-01T05:16:45.997Z,937.69
2018-10-01T05:17:53.957Z,937.74
2018-10-01T05:19:02.028Z,937.66
2018-10-01T05:20:10.091Z,937.70
2018-10-01T05:21:18.154Z,937.66
2018-10-01T05:22:26.317Z,937.70
2018-10-01T05:23:34.284Z,937.73
2018-10-01T05:24:42.364Z,937.78
2018-10-01T05:25:50.411Z,937.76
2018-10-01T05:26:58.511Z,937.80
2018-10-01T05:28:06.642Z,937.73
2018-10-01T05:29:14.699Z,937.73
2018-10-01T05:30:22.650Z,937.76
2018-10-01T05:31:30.724Z,937.75
2018-10-01T05:32:38.832Z,937.70
2018-10-01T05:33:46.856Z,937.66
2018-10-01T05:34:54.930Z,937.72
2018-10-01T05:36:02.951Z,937.72
2018-10-01T05:37:11.066Z,937.71
2018-10-01T05:38:19.194Z,937.75
2018-10-01T05:39:27.174Z,937.73
2018-10-01T05:40:35.228Z,937.72
2018-10-01T05:41:43.276Z,937.72
2018-10-01T05:42:51.374Z,937.74
2018-10-01T05:43:59.516Z,937.78
2018-10-01T05:45:07.584Z,937.75
2018-10-01T05:46:15.552Z,937.76
2018-10-01T05:47:23.625Z,937.78
2018-10-01T05:48:31.693Z,937.76
2018-10-01T05:49:39.846Z,937.79
2018-10-01T05:50:47.819Z,937.77
2018-10-01T05:51:55.883Z,937.78
2018-10-01T05:53:04.068Z,937.87
2018-10-01T05:54:12.011Z,937.86
2018-10-01T05:55:20.176Z,937.93
2018-10-01T05:56:28.151Z,937.96
2018-10-01T05:57:36.236Z,937.96
2018-10-01T05:58:44.260Z,937.96
2018-10-01T05:59:52.324Z,938.02
2018-10-01T06:01:00.482Z,938.01
2018-10-01T06:02:08.455Z,938.02
2018-10-01T06:03:16.520Z,938.04
2018-10-01T06:04:24.584Z,938.01
2018-10-01T06:05:32.633Z,938.01
2018-10-01T06:06:40.809Z,938.02
2018-10-01T06:07:48.781Z,938.04
2018-10-01T06:08:56.848Z,938.07
2018-10-01T06:10:04.900Z,938.13
2018-10-01T06:11:12.941Z,938.10
2018-10-01T06:12:21.126Z,938.11
2018-10-01T06:13:29.102Z,938.16
2018-10-01T06:14:37.148Z,938.17
2018-10-01T06:15:45.260Z,938.14
2018-10-01T06:16:53.353Z,938.12
2018-10-01T06:18:01.434Z,938.20
2018-10-01T06:19:09.409Z,938.24
2018-10-01T06:20:17.462Z,938.34
2018-10-01T06:21:25.534Z,938.34
2018-10-01T06:22:33.695Z,938.35
2018-10-01T06:23:41.668Z,938.43
2018-10-01T06:24:49.733Z,938.47
2018-10-01T06:25:57.793Z,938.46
2018-10-01T06:27:05.859Z,938.52
2018-10-01T06:28:14.013Z,938.55
2018-10-01T06:29:21.967Z,938.61
2018-10-01T06:30:30.049Z,938.68
2018-10-01T06:31:38.112Z,938.70
2018-10-01T06:32:46.281Z,938.73
2018-10-01T06:33:54.337Z,938.76
2018-10-01T06:35:02.311Z,938.84
2018-10-01T06:36:10.383Z,938.86
2018-10-01T06:37:18.431Z,938.88
2018-10-01T06:38:26.480Z,938.94
2018-10-01T06:39:34.649Z,938.94
2018-10-01T06:40:42.608Z,938.98
2018-10-01T06:41:50.769Z,939.04
2018-10-01T06:42:58.746Z,939.01
2018-10-01T06:44:06.805Z,939.07
2018-10-01T06:45:14.968Z,939.12
2018-10-01T06:46:22.922Z,939.13
2018-10-01T06:47:31.101Z,939.15
2018-10-01T06:48:39.070Z,939.11
2018-10-01T06:49:47.116Z,939.17
2018-10-01T06:50:55.433Z,939.24
2018-10-01T06:52:03.238Z,939.21
2018-10-01T06:53:11.323Z,939.27
2018-10-01T06:54:19.373Z,939.28
2018-10-01T06:55:27.441Z,939.29
2018-10-01T06:56:35.556Z,939.31
2018-10-01T06:57:43.573Z,939.35
2018-10-01T06:58:51.658Z,939.36
2018-10-01T06:59:59.720Z,939.38
2018-10-01T07:01:07.807Z,939.37
2018-10-01T07:02:15.922Z,939.39
2018-10-01T07:03:23.994Z,939.40
2018-10-01T07:04:31.957Z,939.44
2018-10-01T07:05:40.109Z,939.43
2018-10-01T07:06:48.086Z,939.41
2018-10-01T07:07:56.284Z,939.50
2018-10-01T07:09:04.217Z,939.58
2018-10-01T07:10:12.287Z,939.60
2018-10-01T07:11:20.411Z,939.58
2018-10-01T07:12:28.498Z,939.69
2018-10-01T07:13:36.472Z,939.63
2018-10-01T07:14:44.551Z,939.77
2018-10-01T07:15:52.607Z,939.77
2018-10-01T07:17:00.769Z,939.81
2018-10-01T07:18:08.821Z,939.86
2018-10-01T07:19:16.790Z,939.83
2018-10-01T07:20:24.861Z,939.84
2018-10-01T07:21:32.936Z,939.93
2018-10-01T07:22:41.173Z,939.92
2018-10-01T07:23:49.094Z,939.92
2018-10-01T07:24:57.126Z,939.95
2018-10-01T07:26:05.187Z,939.92
2018-10-01T07:27:13.232Z,939.97
2018-10-01T07:28:21.404Z,939.98
2018-10-01T07:29:29.360Z,940.00
2018-10-01T07:30:37.444Z,940.00
2018-10-01T07:31:45.516Z,940.03
2018-10-01T07:32:53.658Z,940.05
2018-10-01T07:34:01.739Z,940.10
2018-10-01T07:35:09.704Z,940.11
2018-10-01T07:36:17.751Z,940.14
2018-10-01T07:37:25.819Z,940.15
2018-10-01T07:38:33.901Z,940.18
2018-10-01T07:39:42.044Z,940.19
2018-10-01T07:40:50.024Z,940.23
2018-10-01T07:41:58.082Z,940.19
2018-10-01T07:43:06.142Z,940.30
2018-10-01T07:44:14.230Z,940.27
2018-10-01T07:45:22.581Z,940.29
2018-10-01T07:46:30.360Z,940.33
2018-10-01T07:47:38.410Z,940.38
2018-10-01T07:48:46.564Z,940.37
2018-10-01T07:49:54.557Z,940.39
2018-10-01T07:51:02.792Z,940.45
2018-10-01T07:52:10.794Z,940.48
2018-10-01T07:53:18.755Z,940.52
2018-10-01T07:54:26.784Z,940.51
2018-10-01T07:55:34.871Z,940.57
2018-10-01T07:56:42.904Z,940.55
2018-10-01T07:57:50.985Z,940.59
2018-10-01T07:58:59.073Z,940.63
2018-10-01T08:00:07.474Z,940.67
2018-10-01T08:01:15.276Z,940.71
2018-10-01T08:02:23.239Z,940.70
2018-10-01T08:03:31.312Z,940.75
2018-10-01T08:04:39.471Z,940.74
2018-10-01T08:08:20.880Z,940.81
2018-10-01T08:09:28.858Z,940.81
2018-10-01T08:10:36.855Z,940.84
2018-10-01T08:11:44.918Z,940.82
2018-10-01T08:12:53.024Z,940.88
2018-10-01T08:14:01.099Z,940.89
2018-10-01T08:15:09.118Z,940.93
2018-10-01T08:16:17.197Z,941.00
2018-10-01T08:17:25.257Z,941.01
2018-10-01T08:18:33.302Z,941.05
2018-10-01T08:19:41.490Z,941.08
2018-10-01T08:20:49.451Z,941.06
2018-10-01T08:21:57.508Z,941.11
2018-10-01T08:23:05.674Z,941.13
2018-10-01T08:24:13.637Z,941.10
2018-10-01T08:25:21.719Z,941.15
2018-10-01T08:26:29.794Z,941.16
2018-10-01T08:27:37.847Z,941.16
2018-10-01T08:28:45.998Z,941.20
2018-10-01T08:29:54.095Z,941.28
2018-10-01T08:31:02.033Z,941.27
2018-10-01T08:32:10.167Z,941.28
2018-10-01T08:33:18.172Z,941.31
2018-10-01T08:34:26.324Z,941.34
2018-10-01T08:35:34.507Z,941.34
2018-10-01T08:36:42.353Z,941.40
2018-10-01T08:37:50.439Z,941.42
2018-10-01T08:38:58.529Z,941.50
2018-10-01T08:40:06.643Z,941.51
2018-10-01T08:41:14.743Z,941.53
2018-10-01T08:42:22.702Z,941.55
2018-10-01T08:43:30.753Z,941.54
2018-10-01T08:44:38.886Z,941.53
2018-10-01T08:45:46.993Z,941.58
2018-10-01T08:46:54.951Z,941.54
2018-10-01T08:48:03.016Z,941.59
2018-10-01T08:49:11.092Z,941.58
2018-10-01T08:50:19.148Z,941.61
2018-10-01T08:51:27.318Z,941.61
2018-10-01T08:52:35.282Z,941.61
2018-10-01T08:53:43.326Z,941.59
2018-10-01T08:54:51.424Z,941.63
2018-10-01T08:55:59.509Z,941.60
2018-10-01T08:57:07.662Z,941.62
2018-10-01T08:58:15.622Z,941.65
2018-10-01T08:59:23.724Z,941.65
2018-10-01T09:00:31.740Z,941.69
2018-10-01T09:01:39.816Z,941.65
2018-10-01T09:02:47.972Z,941.65
2018-10-01T09:03:55.958Z,941.65
2018-10-01T09:05:04.040Z,941.65
2018-10-01T09:06:12.082Z,941.69
2018-10-01T09:07:20.241Z,941.70
2018-10-01T09:08:28.235Z,941.71
2018-10-01T09:09:36.265Z,941.73
2018-10-01T09:10:44.384Z,941.75
2018-10-01T09:11:52.416Z,941.73
2018-10-01T09:13:00.516Z,941.77
2018-10-01T09:14:08.647Z,941.76
2018-10-01T09:15:16.641Z,941.77
2018-10-01T09:16:24.683Z,941.78
2018-10-01T09:17:32.861Z,941.75
2018-10-01T09:18:40.827Z,941.81
2018-10-01T09:19:48.889Z,941.79
2018-10-01T09:20:56.952Z,941.81
2018-10-01T09:22:05.017Z,941.80
2018-10-01T09:23:13.192Z,941.85
2018-10-01T09:24:21.157Z,941.83
2018-10-01T09:25:29.213Z,941.85
2018-10-01T09:26:37.371Z,941.83
2018-10-01T09:27:45.341Z,941.85
2018-10-01T09:28:53.447Z,941.91
2018-10-01T09:30:01.469Z,941.90
2018-10-01T09:31:09.581Z,941.93
2018-10-01T09:32:17.653Z,941.96
2018-10-01T09:33:25.681Z,941.95
2018-10-01T09:34:33.850Z,941.94
2018-10-01T09:35:41.812Z,941.97
2018-10-01T09:36:49.877Z,941.98
2018-10-01T09:37:58.019Z,941.95
2018-10-01T09:39:06.003Z,941.98
2018-10-01T09:40:14.219Z,941.98
2018-10-01T09:41:22.145Z,941.99
2018-10-01T09:42:30.232Z,941.97
2018-10-01T09:43:38.277Z,941.98
2018-10-01T09:44:46.338Z,941.94
2018-10-01T09:45:54.504Z,941.94
2018-10-01T09:47:02.460Z,941.92
2018-10-01T09:48:10.550Z,941.94
2018-10-01T09:49:18.624Z,941.90
2018-10-01T09:50:26.723Z,941.94
2018-10-01T09:51:34.855Z,941.89
2018-10-01T09:52:42.846Z,941.92
2018-10-01T09:53:51.029Z,941.88
2018-10-01T09:54:58.953Z,941.88
2018-10-01T09:56:07.073Z,941.90
2018-10-01T09:57:15.176Z,941.87
2018-10-01T09:58:23.191Z,941.94
2018-10-01T09:59:31.257Z,941.94
2018-10-01T10:00:39.264Z,941.95
2018-10-01T10:01:47.347Z,941.94
2018-10-01T10:02:55.539Z,941.94
2018-10-01T10:04:03.625Z,941.94
2018-10-01T10:05:11.564Z,941.92
2018-10-01T10:06:19.612Z,941.94
2018-10-01T10:07:27.776Z,941.96
2018-10-01T10:08:35.968Z,941.93
2018-10-01T10:09:43.798Z,941.95
2018-10-01T10:10:51.880Z,941.96
2018-10-01T10:11:59.936Z,941.96
2018-10-01T10:13:08.100Z,941.96
2018-10-01T10:14:16.181Z,941.97
2018-10-01T10:15:24.154Z,941.96
2018-10-01T10:16:32.264Z,941.97
2018-10-01T10:17:40.372Z,941.96
2018-10-01T10:18:48.339Z,941.99
2018-10-01T10:19:56.427Z,941.96
2018-10-01T10:21:04.476Z,942.02
2018-10-01T10:22:12.607Z,942.03
2018-10-01T10:23:20.704Z,942.05
2018-10-01T10:24:28.785Z,942.05
2018-10-01T10:25:36.741Z,942.06
2018-10-01T10:26:44.802Z,942.05
2018-10-01T10:27:52.847Z,942.08
2018-10-01T10:29:01.041Z,942.08
2018-10-01T10:30:09.015Z,942.04
2018-10-01T10:31:17.086Z,942.07
2018-10-01T10:32:25.158Z,942.03
2018-10-01T10:33:33.192Z,942.05
2018-10-01T10:34:41.354Z,942.07
2018-10-01T10:35:49.359Z,942.05
2018-10-01T10:36:57.419Z,942.05
2018-10-01T10:38:05.535Z,942.10
2018-10-01T10:39:13.522Z,942.10
2018-10-01T10:40:21.697Z,942.13
2018-10-01T10:41:29.671Z,942.16
2018-10-01T10:42:37.743Z,942.11
2018-10-01T10:43:45.817Z,942.11
2018-10-01T10:44:53.959Z,942.10
2018-10-01T10:46:01.942Z,942.09
2018-10-01T10:47:10.006Z,942.10
2018-10-01T10:48:18.066Z,942.12
2018-10-01T10:49:26.137Z,942.14
2018-10-01T10:50:34.312Z,942.12
2018-10-01T10:51:42.264Z,942.13
2018-10-01T10:52:50.344Z,942.14
2018-10-01T10:53:59.097Z,942.15
2018-10-01T10:55:06.470Z,942.15
2018-10-01T10:56:14.703Z,942.12
2018-10-01T10:57:22.609Z,942.15
2018-10-01T10:58:30.711Z,942.15
2018-10-01T10:59:38.737Z,942.15
2018-10-01T11:00:46.847Z,942.12
2018-10-01T11:01:54.960Z,942.10
2018-10-01T11:03:02.917Z,942.14
2018-10-01T11:04:11.000Z,942.13
2018-10-01T11:05:19.104Z,942.11
2018-10-01T11:06:27.133Z,942.11
2018-10-01T11:07:35.247Z,942.13
2018-10-01T11:08:43.241Z,942.14
2018-10-01T11:09:51.337Z,942.20
2018-10-01T11:10:59.397Z,942.17
2018-10-01T11:12:07.559Z,942.18
2018-10-01T11:13:15.573Z,942.23
2018-10-01T11:14:23.671Z,942.20
2018-10-01T11:15:31.723Z,942.23
2018-10-01T11:16:39.754Z,942.20
2018-10-01T11:17:47.946Z,942.20
2018-10-01T11:18:56.012Z,942.20
2018-10-01T11:20:04.029Z,942.21
2018-10-01T11:21:12.055Z,942.21
2018-10-01T11:22:20.054Z,942.16
2018-10-01T11:23:28.384Z,942.22
2018-10-01T11:24:36.174Z,942.22
2018-10-01T11:25:44.248Z,942.21
2018-10-01T11:26:52.336Z,942.24
2018-10-01T11:28:00.485Z,942.24
2018-10-01T11:29:08.697Z,942.21
2018-10-01T11:30:16.508Z,942.19
2018-10-01T11:31:24.608Z,942.21
2018-10-01T11:32:32.636Z,942.25
2018-10-01T11:33:40.838Z,942.24
2018-10-01T11:34:48.913Z,942.25
2018-10-01T11:35:56.843Z,942.20
2018-10-01T11:37:04.913Z,942.23
2018-10-01T11:38:12.952Z,942.25
2018-10-01T11:39:21.250Z,942.20
2018-10-01T11:40:29.191Z,942.26
2018-10-01T11:41:37.165Z,942.28
2018-10-01T11:42:45.320Z,942.28
2018-10-01T11:43:53.289Z,942.30
2018-10-01T11:45:01.378Z,942.29
2018-10-01T11:46:09.516Z,942.27
2018-10-01T11:47:17.494Z,942.27
2018-10-01T11:48:25.561Z,942.32
2018-10-01T11:49:33.618Z,942.32
2018-10-01T11:50:41.692Z,942.27
2018-10-01T11:51:49.862Z,942.30
2018-10-01T11:52:57.831Z,942.33
2018-10-01T11:54:05.962Z,942.32
2018-10-01T11:56:24.634Z,942.32
2018-10-01T11:57:32.772Z,942.38
2018-10-01T11:58:40.762Z,942.36
2018-10-01T11:59:48.822Z,942.39
2018-10-01T12:00:56.887Z,942.37
2018-10-01T12:02:04.964Z,942.40
2018-10-01T12:03:13.225Z,942.41
2018-10-01T12:04:21.079Z,942.44
2018-10-01T12:05:29.148Z,942.42
2018-10-01T12:06:37.225Z,942.45
2018-10-01T12:07:45.370Z,942.43
2018-10-01T12:08:53.328Z,942.45
2018-10-01T12:10:01.507Z,942.44
2018-10-01T12:11:09.479Z,942.44
2018-10-01T12:12:17.534Z,942.50
2018-10-01T12:13:25.713Z,942.45
2018-10-01T12:14:33.657Z,942.47
2018-10-01T12:15:41.832Z,942.46
2018-10-01T12:18:00.496Z,942.47
2018-10-01T12:20:23.074Z,942.46
2018-10-01T12:21:31.170Z,942.52
2018-10-01T12:22:39.219Z,942.51
2018-10-01T12:23:47.282Z,942.52
2018-10-01T12:24:55.449Z,942.49
2018-10-01T12:26:03.384Z,942.48
2018-10-01T12:27:11.551Z,942.50
2018-10-01T12:28:19.537Z,942.53
2018-10-01T12:29:27.614Z,942.52
2018-10-01T12:30:35.770Z,942.54
2018-10-01T12:31:43.721Z,942.52
2018-10-01T12:32:51.802Z,942.56
2018-10-01T12:33:59.865Z,942.57
2018-10-01T12:35:08.042Z,942.55
2018-10-01T12:36:16.114Z,942.59
2018-10-01T12:37:24.049Z,942.58
2018-10-01T12:38:32.136Z,942.60
2018-10-01T12:39:40.370Z,942.59
2018-10-01T12:40:48.272Z,942.53
2018-10-01T12:41:56.422Z,942.55
2018-10-01T12:43:04.481Z,942.54
2018-10-01T12:44:12.580Z,942.57
2018-10-01T12:45:20.733Z,942.57
2018-10-01T12:46:28.598Z,942.58
2018-10-01T12:47:36.691Z,942.59
2018-10-01T12:48:44.737Z,942.56
2018-10-01T12:49:52.761Z,942.61
2018-10-01T12:51:00.885Z,942.64
2018-10-01T12:52:09.053Z,942.59
2018-10-01T12:53:17.084Z,942.62
2018-10-01T12:54:25.055Z,942.59
2018-10-01T12:55:33.107Z,942.64
2018-10-01T12:56:41.179Z,942.59
2018-10-01T12:57:49.238Z,942.63
2018-10-01T12:58:57.454Z,942.63
2018-10-01T13:00:07.468Z,942.64
2018-10-01T13:01:15.441Z,942.67
2018-10-01T13:02:23.492Z,942.66
2018-10-01T13:03:31.571Z,942.63
2018-10-01T13:04:40.745Z,942.68
2018-10-01T13:05:48.713Z,942.70
2018-10-01T13:06:56.788Z,942.67
2018-10-01T13:08:04.841Z,942.63
2018-10-01T13:09:12.883Z,942.64
2018-10-01T13:10:21.055Z,942.63
2018-10-01T13:11:29.032Z,942.63
2018-10-01T13:12:37.237Z,942.62
2018-10-01T13:13:45.160Z,942.65
2018-10-01T13:14:53.200Z,942.66
2018-10-01T13:16:01.381Z,942.65
2018-10-01T13:17:09.361Z,942.69
2018-10-01T13:18:17.659Z,942.70
2018-10-01T13:19:25.493Z,942.69
2018-10-01T13:20:33.561Z,942.69
2018-10-01T13:21:41.725Z,942.68
2018-10-01T13:22:49.701Z,942.71
2018-10-01T13:23:57.802Z,942.75
2018-10-01T13:25:05.935Z,942.75
2018-10-01T13:26:13.872Z,942.72
2018-10-01T13:27:22.062Z,942.70
2018-10-01T13:28:30.013Z,942.72
2018-10-01T13:29:38.069Z,942.75
2018-10-01T13:30:46.455Z,942.72
2018-10-01T13:31:54.229Z,942.72
2018-10-01T13:33:02.369Z,942.68
2018-10-01T13:34:10.341Z,942.73
2018-10-01T13:35:18.421Z,942.73
2018-10-01T13:36:26.476Z,942.74
2018-10-01T13:37:34.591Z,942.74
2018-10-01T13:38:42.598Z,942.73
2018-10-01T13:39:50.680Z,942.72
2018-10-01T13:40:58.747Z,942.68
2018-10-01T13:42:06.837Z,942.71
2018-10-01T13:43:14.912Z,942.74
2018-10-01T13:44:22.932Z,942.74
2018-10-01T13:45:30.995Z,942.75
2018-10-01T13:46:39.059Z,942.77
2018-10-01T13:47:47.243Z,942.73
2018-10-01T13:48:55.287Z,942.77
2018-10-01T13:50:03.245Z,942.75
2018-10-01T13:51:11.319Z,942.75
2018-10-01T13:52:19.584Z,942.75
2018-10-01T13:53:27.565Z,942.74
2018-10-01T13:54:35.621Z,942.75
2018-10-01T13:55:43.593Z,942.76
2018-10-01T13:56:51.661Z,942.75
2018-10-01T13:57:59.761Z,942.73
2018-10-01T13:59:07.892Z,942.74
2018-10-01T14:00:15.949Z,942.74
2018-10-01T14:01:23.971Z,942.71
2018-10-01T14:02:31.993Z,942.73
2018-10-01T14:03:40.071Z,942.76
2018-10-01T14:04:48.222Z,942.73
2018-10-01T14:05:56.182Z,942.77
2018-10-01T14:07:04.284Z,942.79
2018-10-01T14:08:12.324Z,942.76
2018-10-01T14:09:20.390Z,942.76
2018-10-01T14:10:28.594Z,942.76
2018-10-01T14:11:36.527Z,942.74
2018-10-01T14:12:44.594Z,942.75
2018-10-01T14:13:52.730Z,942.78
2018-10-01T14:15:00.744Z,942.74